Nimbus Weather Services

Informe meteorológico para Carrasco, Uruguay. El informe se hizo hace 8 minutos, a las 06:00 UTC. El viento soplaba a una velocidad de 1.0 m/s (2.3 millas por hora) del noreste (040°). La temperatura era 20 °C (68 °F), con un punto de rocío de 19 °C (66 °F). La presión atmosférica era 1018 hPa (30.06 inHg). Había una humedad relativa del 94.0%. Cielo: algunas nubes a una altitud de 610 metros (2000 pies) y nubosidad discontinua a una altitud de 2134 metros (7000 pies). En aquel momento la visibilidad global era mayor de 10 kilómetros (6.2 millas).

La clave METAR es: SUMU 230600Z 04002KT 9999 FEW020 BKN070 20/19 Q1018 NOSIG

Consulta realizada el Jueves 23 de Marzo de 2017 3:07. Tiempo usado para generar esta pagina:4,507 ms.